CYQHPAWG

Guest
Details From CYQH - Watson Lake
To PAWG - Wrangell
Flight Number -
Tags Generated
Created
Modified
Stats Distance 245 nm / 454 km
Max Altitude 0 ft / 0 m
Waypoints 3
Social Downloads 1
Likes 0
Share VATSIM

Download

Looking for another format? Having issues loading an existing format? Contact us
Advertisement - Login to hide

Notes

Generated

Route

CYQH R0387 PAWG

ID Type Via Altitude Latitude Longitude Leg Dist Tot Dist Heading (true) Name
O CYQH APT - 0 ft / 0 m 60.12000˚ -128.83472˚ - 0 nm - -
R0387 FIX - 0 ft / 0 m 56.48860˚ -132.38250˚ 245 nm 245 nm 209° / 206° -
O PAWG APT - 0 ft / 0 m 56.48860˚ -132.38250˚ 0 nm 245 nm 0° / 180° -

Altitude Profile

Advertisement - Login to hide

Weather


0- 5 10 15 20 25 30 35+ Temperature / ° C

Clouds and Precipitation
Forecast for 2018-05-21 06:00 UTC. Updated 10 minutes ago

Ground ~20,000 ft ~40,000 ft Winds

CYQH

Details ICAO CYQH (YQH)
Name WATSON LAKE
Region Canada
Timezone America/Whitehorse (UTC-7.0)
Stats Elevation 2,255 ft / 687 m (AMSL)
Location 60.117502° -128.820560°
Runways 1
Magnetic Variation 19.653° E

METAR

CYQH 210300Z 30006KT 30SM SCT089 BKN190 16/06 A2972 RMK AC3AS3 SLP079 DENSITY ALT 3200FT

Decode

TAF

TAF AMD TAF AMD CYQH 210127Z 2101/2112 27008KT P6SM SCT040 BKN080 OVC220 TEMPO 2101/2104 VRB15G25KT P6SM -SHRA VCTS BKN040 OVC080CB FM210400 25007KT P6SM BKN080 TEMPO 2104/2106 P6SM -SHRA FM210600 VRB03KT P6SM SCT100 RMK NXT FCST BY 210600Z

Decode

Departure Runways

ID Width Length Bearing (true) Bearing (mag) Surface Threshold Offset Overrun Length
08 150 ft / 46 m 5,462 ft / 1,665 m 109.49° 89.84° Asphalt 0 ft / 0 m 0 ft / 0 m
26 150 ft / 46 m 5,462 ft / 1,665 m 289.51° 269.86° Asphalt 0 ft / 0 m 0 ft / 0 m

PAWG

Details ICAO PAWG (WRG)
Name WRANGELL
Region USA (Alaska)
Timezone America/Juneau (UTC-8.0)
Stats Elevation 44 ft / 13 m (AMSL)
Location 56.484324° -132.369832°
Runways 1
Magnetic Variation 18.698° E

METAR

PAWG 210256Z 11014G19KT 10SM FEW035 BKN050 OVC080 13/06 A2993

Decode

TAF

PAWG 202336Z 2100/2124 12010KT P6SM BKN070 OVC090 TEMPO 2100/2104 12015G25KT FM210900 12013KT 5SM -RA BR SCT025 OVC035 WS020/15035KT AMD LTD TO CLD VIS AND WIND 2106/2115

Decode

Destination Runways

ID Width Length Bearing (true) Bearing (mag) Surface Threshold Offset Overrun Length
10 150 ft / 46 m 5,983 ft / 1,824 m 121.43° 102.73° Asphalt 0 ft / 0 m 0 ft / 0 m
28 150 ft / 46 m 5,983 ft / 1,824 m 301.45° 282.75° Asphalt 0 ft / 0 m 0 ft / 0 m

Approach Navaids

Runway Type Ident Frequency Range Bearing (true) Bearing (mag) Slope Elevation
10 Localiser IRGL 108.50 MHz 18 nm / 33 km 112.18° 93.48° - 40 ft / 12 m (AMSL)
10 DME IRGL 108.50 MHz 18 nm / 33 km - - - 58 ft / 18 m (AMSL)